sensor_id;sensor_type;location;lat;lon;timestamp;pressure;altitude;pressure_sealevel;temperature;humidity
3968;BME280;9221;42.646;23.380;2023-04-06T00:00:13;94205.91;;;1.47;71.54
3968;BME280;9221;42.646;23.380;2023-04-06T00:02:39;94221.28;;;1.50;71.46
3968;BME280;9221;42.646;23.380;2023-04-06T00:05:05;94172.25;;;1.20;71.63
3968;BME280;9221;42.646;23.380;2023-04-06T00:07:31;94187.63;;;1.35;71.51
3968;BME280;9221;42.646;23.380;2023-04-06T00:09:58;94237.06;;;1.60;71.83
3968;BME280;9221;42.646;23.380;2023-04-06T00:12:23;94263.47;;;1.66;71.66
3968;BME280;9221;42.646;23.380;2023-04-06T00:14:49;94178.28;;;1.33;71.53
3968;BME280;9221;42.646;23.380;2023-04-06T00:17:15;94249.84;;;1.24;71.99
3968;BME280;9221;42.646;23.380;2023-04-06T00:19:40;94223.34;;;1.71;71.47
3968;BME280;9221;42.646;23.380;2023-04-06T00:22:06;94265.16;;;1.67;71.52
3968;BME280;9221;42.646;23.380;2023-04-06T00:24:31;94237.94;;;1.60;71.87
3968;BME280;9221;42.646;23.380;2023-04-06T00:26:56;94249.16;;;1.74;71.60
3968;BME280;9221;42.646;23.380;2023-04-06T00:29:22;94242.50;;;1.69;72.07
3968;BME280;9221;42.646;23.380;2023-04-06T00:31:47;94048.50;;;0.69;71.45
3968;BME280;9221;42.646;23.380;2023-04-06T00:34:13;94204.97;;;1.74;71.87
3968;BME280;9221;42.646;23.380;2023-04-06T00:36:40;94222.53;;;1.70;71.90
3968;BME280;9221;42.646;23.380;2023-04-06T00:39:05;94144.63;;;1.31;71.49
3968;BME280;9221;42.646;23.380;2023-04-06T00:41:31;94214.84;;;1.68;71.50
3968;BME280;9221;42.646;23.380;2023-04-06T00:43:56;94210.69;;;1.66;71.90
3968;BME280;9221;42.646;23.380;2023-04-06T00:46:22;94134.88;;;1.22;72.09
3968;BME280;9221;42.646;23.380;2023-04-06T00:48:48;94193.94;;;1.57;71.92
3968;BME280;9221;42.646;23.380;2023-04-06T00:51:13;94103.50;;;0.99;71.52
3968;BME280;9221;42.646;23.380;2023-04-06T00:53:38;94215.78;;;1.67;72.18
3968;BME280;9221;42.646;23.380;2023-04-06T00:56:04;94209.19;;;1.75;72.20
3968;BME280;9221;42.646;23.380;2023-04-06T00:58:30;94187.81;;;1.58;71.72
3968;BME280;9221;42.646;23.380;2023-04-06T01:00:55;94178.88;;;1.62;71.57
3968;BME280;9221;42.646;23.380;2023-04-06T01:03:21;94201.41;;;1.75;71.54
3968;BME280;9221;42.646;23.380;2023-04-06T01:05:46;94253.91;;;1.54;71.20
3968;BME280;9221;42.646;23.380;2023-04-06T01:08:12;94209.59;;;1.81;71.37
3968;BME280;9221;42.646;23.380;2023-04-06T01:10:37;94141.59;;;1.38;71.48
3968;BME280;9221;42.646;23.380;2023-04-06T01:13:02;94147.09;;;1.46;71.05
3968;BME280;9221;42.646;23.380;2023-04-06T01:15:28;94189.66;;;1.69;72.11
3968;BME280;9221;42.646;23.380;2023-04-06T01:17:54;94231.47;;;1.66;72.02
3968;BME280;9221;42.646;23.380;2023-04-06T01:20:20;94197.78;;;1.64;72.39
3968;BME280;9221;42.646;23.380;2023-04-06T01:22:45;94164.13;;;1.50;72.75
3968;BME280;9221;42.646;23.380;2023-04-06T01:25:11;94123.44;;;1.12;72.59
3968;BME280;9221;42.646;23.380;2023-04-06T01:27:36;94127.38;;;1.17;72.50
3968;BME280;9221;42.646;23.380;2023-04-06T01:30:02;94119.56;;;1.17;72.84
3968;BME280;9221;42.646;23.380;2023-04-06T01:32:28;94117.41;;;1.11;72.84
3968;BME280;9221;42.646;23.380;2023-04-06T01:34:53;93984.78;;;0.26;73.22
3968;BME280;9221;42.646;23.380;2023-04-06T01:37:20;94169.00;;;1.42;73.54
3968;BME280;9221;42.646;23.380;2023-04-06T01:39:45;94183.69;;;1.43;73.21
3968;BME280;9221;42.646;23.380;2023-04-06T01:42:11;94007.59;;;0.33;73.66
3968;BME280;9221;42.646;23.380;2023-04-06T01:44:36;94144.84;;;1.15;73.32
3968;BME280;9221;42.646;23.380;2023-04-06T01:47:02;94107.44;;;1.05;73.80
3968;BME280;9221;42.646;23.380;2023-04-06T01:49:27;94157.63;;;1.31;73.25
3968;BME280;9221;42.646;23.380;2023-04-06T01:51:53;94197.19;;;1.48;73.64
3968;BME280;9221;42.646;23.380;2023-04-06T01:54:19;94158.72;;;1.53;73.57
3968;BME280;9221;42.646;23.380;2023-04-06T01:56:45;94180.75;;;1.60;73.23
3968;BME280;9221;42.646;23.380;2023-04-06T01:59:10;94167.88;;;1.59;73.05
3968;BME280;9221;42.646;23.380;2023-04-06T02:01:36;94146.50;;;1.42;73.53
3968;BME280;9221;42.646;23.380;2023-04-06T02:04:01;94170.34;;;1.60;73.21
3968;BME280;9221;42.646;23.380;2023-04-06T02:06:26;94103.69;;;1.22;73.02
3968;BME280;9221;42.646;23.380;2023-04-06T02:08:52;94164.94;;;1.63;73.08
3968;BME280;9221;42.646;23.380;2023-04-06T02:11:17;94109.50;;;1.39;72.80
3968;BME280;9221;42.646;23.380;2023-04-06T02:13:43;93996.16;;;0.75;73.12
3968;BME280;9221;42.646;23.380;2023-04-06T02:16:08;94087.59;;;1.17;72.67
3968;BME280;9221;42.646;23.380;2023-04-06T02:18:34;94105.13;;;1.39;72.80
3968;BME280;9221;42.646;23.380;2023-04-06T02:20:59;94137.72;;;1.56;72.86
3968;BME280;9221;42.646;23.380;2023-04-06T02:23:25;94153.47;;;1.79;72.86
3968;BME280;9221;42.646;23.380;2023-04-06T02:25:51;94087.03;;;1.38;72.43
3968;BME280;9221;42.646;23.380;2023-04-06T02:28:17;93981.03;;;0.69;72.61
3968;BME280;9221;42.646;23.380;2023-04-06T02:30:42;94198.47;;;1.92;72.23
3968;BME280;9221;42.646;23.380;2023-04-06T02:33:08;94149.78;;;1.94;72.50
3968;BME280;9221;42.646;23.380;2023-04-06T02:35:33;94108.41;;;1.54;72.02
3968;BME280;9221;42.646;23.380;2023-04-06T02:37:58;94163.72;;;1.56;71.94
3968;BME280;9221;42.646;23.380;2023-04-06T02:40:24;94179.22;;;1.95;72.75
3968;BME280;9221;42.646;23.380;2023-04-06T02:42:49;94112.34;;;1.60;72.11
3968;BME280;9221;42.646;23.380;2023-04-06T02:45:15;94206.25;;;1.92;71.96
3968;BME280;9221;42.646;23.380;2023-04-06T02:47:41;94166.44;;;1.92;72.08
3968;BME280;9221;42.646;23.380;2023-04-06T02:50:07;94091.59;;;1.47;72.09
3968;BME280;9221;42.646;23.380;2023-04-06T02:52:32;94105.09;;;1.52;72.43
3968;BME280;9221;42.646;23.380;2023-04-06T02:54:58;94228.72;;;1.93;72.27
3968;BME280;9221;42.646;23.380;2023-04-06T02:57:23;94199.44;;;1.78;72.44
3968;BME280;9221;42.646;23.380;2023-04-06T02:59:49;94113.91;;;1.62;72.18
3968;BME280;9221;42.646;23.380;2023-04-06T03:02:14;94159.25;;;1.95;72.29
3968;BME280;9221;42.646;23.380;2023-04-06T03:04:40;94161.19;;;2.05;72.39
3968;BME280;9221;42.646;23.380;2023-04-06T03:07:05;94200.84;;;1.95;72.58
3968;BME280;9221;42.646;23.380;2023-04-06T03:09:30;94153.28;;;1.82;71.99
3968;BME280;9221;42.646;23.380;2023-04-06T03:11:56;93967.41;;;0.78;71.76
3968;BME280;9221;42.646;23.380;2023-04-06T03:14:21;94108.41;;;1.54;72.42
3968;BME280;9221;42.646;23.380;2023-04-06T03:16:48;94102.22;;;1.44;72.30
3968;BME280;9221;42.646;23.380;2023-04-06T03:19:14;94140.16;;;1.83;72.44
3968;BME280;9221;42.646;23.380;2023-04-06T03:21:39;94087.34;;;1.46;72.96
3968;BME280;9221;42.646;23.380;2023-04-06T03:24:05;94221.44;;;1.85;72.48
3968;BME280;9221;42.646;23.380;2023-04-06T03:26:30;94132.38;;;1.71;72.64
3968;BME280;9221;42.646;23.380;2023-04-06T03:28:56;94085.78;;;1.43;72.87
3968;BME280;9221;42.646;23.380;2023-04-06T03:31:21;94139.13;;;1.73;72.96
3968;BME280;9221;42.646;23.380;2023-04-06T03:33:47;94080.69;;;1.42;72.57
3968;BME280;9221;42.646;23.380;2023-04-06T03:36:12;94104.06;;;1.55;72.63
3968;BME280;9221;42.646;23.380;2023-04-06T03:38:37;94090.16;;;1.43;73.15
3968;BME280;9221;42.646;23.380;2023-04-06T03:41:03;94148.25;;;1.79;73.17
3968;BME280;9221;42.646;23.380;2023-04-06T03:43:28;94143.56;;;1.47;72.89
3968;BME280;9221;42.646;23.380;2023-04-06T03:45:54;94155.34;;;1.77;72.77
3968;BME280;9221;42.646;23.380;2023-04-06T03:48:19;94178.41;;;1.81;72.87
3968;BME280;9221;42.646;23.380;2023-04-06T03:50:45;94136.00;;;1.81;72.83
3968;BME280;9221;42.646;23.380;2023-04-06T03:53:10;94148.84;;;1.95;72.36
3968;BME280;9221;42.646;23.380;2023-04-06T03:55:36;94157.47;;;1.59;72.57
3968;BME280;9221;42.646;23.380;2023-04-06T03:58:01;94190.25;;;1.98;72.53
3968;BME280;9221;42.646;23.380;2023-04-06T04:00:27;94217.19;;;1.97;72.08
3968;BME280;9221;42.646;23.380;2023-04-06T04:02:52;94079.19;;;1.63;72.58
3968;BME280;9221;42.646;23.380;2023-04-06T04:05:18;94088.53;;;1.66;71.64
3968;BME280;9221;42.646;23.380;2023-04-06T04:07:43;94140.00;;;1.98;72.03
3968;BME280;9221;42.646;23.380;2023-04-06T04:10:09;94139.22;;;2.09;71.93
3968;BME280;9221;42.646;23.380;2023-04-06T04:12:34;94101.69;;;1.76;71.55
3968;BME280;9221;42.646;23.380;2023-04-06T04:15:00;94084.88;;;1.68;71.75
3968;BME280;9221;42.646;23.380;2023-04-06T04:17:25;94142.69;;;2.09;71.74
3968;BME280;9221;42.646;23.380;2023-04-06T04:19:51;94081.34;;;1.69;71.18
3968;BME280;9221;42.646;23.380;2023-04-06T04:22:16;94140.09;;;1.96;71.57
3968;BME280;9221;42.646;23.380;2023-04-06T04:24:41;94128.50;;;1.89;71.75
3968;BME280;9221;42.646;23.380;2023-04-06T04:27:07;94138.03;;;1.89;72.13
3968;BME280;9221;42.646;23.380;2023-04-06T04:29:32;94083.16;;;1.56;72.00
3968;BME280;9221;42.646;23.380;2023-04-06T04:31:58;94165.84;;;2.12;72.03
3968;BME280;9221;42.646;23.380;2023-04-06T04:34:23;94106.66;;;1.79;71.56
3968;BME280;9221;42.646;23.380;2023-04-06T04:36:52;94089.16;;;1.69;71.34
3968;BME280;9221;42.646;23.380;2023-04-06T04:39:17;94150.84;;;2.16;71.59
3968;BME280;9221;42.646;23.380;2023-04-06T04:41:42;94182.38;;;2.11;71.96
3968;BME280;9221;42.646;23.380;2023-04-06T04:44:08;94141.13;;;2.07;71.88
3968;BME280;9221;42.646;23.380;2023-04-06T04:46:33;94143.50;;;2.10;71.60
3968;BME280;9221;42.646;23.380;2023-04-06T04:48:59;94093.13;;;1.86;71.81
3968;BME280;9221;42.646;23.380;2023-04-06T04:51:24;94155.16;;;2.28;71.80
3968;BME280;9221;42.646;23.380;2023-04-06T04:53:50;94097.22;;;2.02;71.29
3968;BME280;9221;42.646;23.380;2023-04-06T04:56:16;94121.91;;;1.96;70.81
3968;BME280;9221;42.646;23.380;2023-04-06T04:58:41;94165.41;;;2.43;71.04
3968;BME280;9221;42.646;23.380;2023-04-06T05:01:07;94187.94;;;2.31;70.49
3968;BME280;9221;42.646;23.380;2023-04-06T05:03:32;94161.59;;;2.35;70.80
3968;BME280;9221;42.646;23.380;2023-04-06T05:05:58;94116.75;;;2.08;70.95
3968;BME280;9221;42.646;23.380;2023-04-06T05:08:23;94102.81;;;2.09;70.57
3968;BME280;9221;42.646;23.380;2023-04-06T05:10:49;94111.34;;;2.11;70.13
3968;BME280;9221;42.646;23.380;2023-04-06T05:13:14;94146.91;;;2.34;70.79
3968;BME280;9221;42.646;23.380;2023-04-06T05:15:40;94106.53;;;2.17;70.72
3968;BME280;9221;42.646;23.380;2023-04-06T05:18:07;94072.72;;;1.93;70.22
3968;BME280;9221;42.646;23.380;2023-04-06T05:20:33;94137.78;;;2.05;70.66
3968;BME280;9221;42.646;23.380;2023-04-06T05:22:59;94189.47;;;2.33;70.85
3968;BME280;9221;42.646;23.380;2023-04-06T05:25:25;94117.25;;;2.13;70.92
3968;BME280;9221;42.646;23.380;2023-04-06T05:27:51;94099.13;;;2.00;70.88
3968;BME280;9221;42.646;23.380;2023-04-06T05:30:16;94092.88;;;2.02;71.19
3968;BME280;9221;42.646;23.380;2023-04-06T05:32:42;94169.72;;;2.55;70.98
3968;BME280;9221;42.646;23.380;2023-04-06T05:35:09;94171.91;;;2.73;70.69
3968;BME280;9221;42.646;23.380;2023-04-06T05:37:35;94114.56;;;2.50;70.32
3968;BME280;9221;42.646;23.380;2023-04-06T05:40:00;94014.31;;;1.86;69.78
3968;BME280;9221;42.646;23.380;2023-04-06T05:42:26;94168.25;;;2.75;70.02
3968;BME280;9221;42.646;23.380;2023-04-06T05:44:52;94164.34;;;2.69;70.54
3968;BME280;9221;42.646;23.380;2023-04-06T05:47:17;94158.75;;;2.63;71.08
3968;BME280;9221;42.646;23.380;2023-04-06T05:49:43;94149.53;;;2.70;71.22
3968;BME280;9221;42.646;23.380;2023-04-06T05:52:08;94151.31;;;2.69;71.45
3968;BME280;9221;42.646;23.380;2023-04-06T05:54:36;94144.09;;;2.37;71.02
3968;BME280;9221;42.646;23.380;2023-04-06T05:57:02;94094.78;;;2.47;70.92
3968;BME280;9221;42.646;23.380;2023-04-06T05:59:30;94089.00;;;2.44;71.12
3968;BME280;9221;42.646;23.380;2023-04-06T06:01:55;94107.97;;;2.57;71.11
3968;BME280;9221;42.646;23.380;2023-04-06T06:04:21;94153.75;;;2.95;71.00
3968;BME280;9221;42.646;23.380;2023-04-06T06:06:46;94175.31;;;2.97;70.85
3968;BME280;9221;42.646;23.380;2023-04-06T06:09:11;94152.13;;;3.05;71.20
3968;BME280;9221;42.646;23.380;2023-04-06T06:11:37;94159.25;;;3.15;71.02
3968;BME280;9221;42.646;23.380;2023-04-06T06:14:03;94081.03;;;2.69;70.98
3968;BME280;9221;42.646;23.380;2023-04-06T06:16:28;94065.63;;;2.55;71.00
3968;BME280;9221;42.646;23.380;2023-04-06T06:18:53;94123.19;;;2.86;71.09
3968;BME280;9221;42.646;23.380;2023-04-06T06:21:19;93968.97;;;1.90;71.19
3968;BME280;9221;42.646;23.380;2023-04-06T06:23:44;94137.22;;;3.08;71.28
3968;BME280;9221;42.646;23.380;2023-04-06T06:26:12;94093.34;;;2.79;71.35
3968;BME280;9221;42.646;23.380;2023-04-06T06:28:37;94158.94;;;2.95;70.84
3968;BME280;9221;42.646;23.380;2023-04-06T06:31:03;94144.22;;;2.71;71.51
3968;BME280;9221;42.646;23.380;2023-04-06T06:33:28;94088.63;;;2.84;71.40
3968;BME280;9221;42.646;23.380;2023-04-06T06:35:54;94079.19;;;2.94;71.30
3968;BME280;9221;42.646;23.380;2023-04-06T06:38:19;94140.91;;;3.39;71.50
3968;BME280;9221;42.646;23.380;2023-04-06T06:40:46;94246.44;;;3.33;70.78
3968;BME280;9221;42.646;23.380;2023-04-06T06:43:11;94104.38;;;2.94;71.12
3968;BME280;9221;42.646;23.380;2023-04-06T06:45:37;94136.53;;;3.39;71.49
3968;BME280;9221;42.646;23.380;2023-04-06T06:48:02;94159.25;;;3.37;71.39
3968;BME280;9221;42.646;23.380;2023-04-06T06:50:27;94157.63;;;3.48;70.67
3968;BME280;9221;42.646;23.380;2023-04-06T06:52:53;94119.22;;;3.61;70.10
3968;BME280;9221;42.646;23.380;2023-04-06T06:55:18;94089.38;;;3.20;69.86
3968;BME280;9221;42.646;23.380;2023-04-06T06:57:44;94121.34;;;3.56;70.83
3968;BME280;9221;42.646;23.380;2023-04-06T07:00:11;94147.88;;;3.72;70.70
3968;BME280;9221;42.646;23.380;2023-04-06T07:02:38;94070.66;;;3.37;70.72
3968;BME280;9221;42.646;23.380;2023-04-06T07:05:04;94068.25;;;3.46;70.69
3968;BME280;9221;42.646;23.380;2023-04-06T07:07:31;94137.19;;;3.98;70.19
3968;BME280;9221;42.646;23.380;2023-04-06T07:09:56;94119.09;;;3.74;70.15
3968;BME280;9221;42.646;23.380;2023-04-06T07:12:22;94105.44;;;3.82;69.70
3968;BME280;9221;42.646;23.380;2023-04-06T07:14:47;94109.50;;;3.75;68.43
3968;BME280;9221;42.646;23.380;2023-04-06T07:19:57;94141.84;;;4.27;68.80
3968;BME280;9221;42.646;23.380;2023-04-06T07:22:22;94172.44;;;4.36;68.67
3968;BME280;9221;42.646;23.380;2023-04-06T07:24:47;94183.84;;;4.35;67.75
3968;BME280;9221;42.646;23.380;2023-04-06T07:27:13;94096.38;;;4.41;67.32
3968;BME280;9221;42.646;23.380;2023-04-06T07:29:38;94082.50;;;4.40;65.48
3968;BME280;9221;42.646;23.380;2023-04-06T07:32:04;94120.91;;;4.71;66.17
3968;BME280;9221;42.646;23.380;2023-04-06T07:34:29;94137.72;;;4.57;64.83
3968;BME280;9221;42.646;23.380;2023-04-06T07:36:55;94128.06;;;4.90;65.26
3968;BME280;9221;42.646;23.380;2023-04-06T07:39:21;94146.66;;;5.18;64.66
3968;BME280;9221;42.646;23.380;2023-04-06T07:41:47;94137.69;;;5.32;64.25
3968;BME280;9221;42.646;23.380;2023-04-06T07:44:12;94104.34;;;5.24;63.54
3968;BME280;9221;42.646;23.380;2023-04-06T07:46:37;94094.19;;;5.31;62.44
3968;BME280;9221;42.646;23.380;2023-04-06T07:49:03;94096.75;;;5.52;61.23
3968;BME280;9221;42.646;23.380;2023-04-06T07:51:29;94126.31;;;5.83;61.47
3968;BME280;9221;42.646;23.380;2023-04-06T07:53:54;94142.88;;;5.84;61.59
3968;BME280;9221;42.646;23.380;2023-04-06T07:56:20;94136.91;;;5.82;61.30
3968;BME280;9221;42.646;23.380;2023-04-06T07:58:46;94087.47;;;5.79;61.54
3968;BME280;9221;42.646;23.380;2023-04-06T08:01:12;94146.19;;;5.96;61.22
3968;BME280;9221;42.646;23.380;2023-04-06T08:03:38;94089.34;;;5.57;61.76
3968;BME280;9221;42.646;23.380;2023-04-06T08:06:03;94132.63;;;6.02;61.44
3968;BME280;9221;42.646;23.380;2023-04-06T08:08:29;94177.75;;;6.35;60.71
3968;BME280;9221;42.646;23.380;2023-04-06T08:10:56;94061.13;;;6.50;59.83
3968;BME280;9221;42.646;23.380;2023-04-06T08:13:21;94140.00;;;6.96;59.12
3968;BME280;9221;42.646;23.380;2023-04-06T08:15:47;94131.84;;;6.99;58.64
3968;BME280;9221;42.646;23.380;2023-04-06T08:18:12;94148.66;;;7.26;58.19
3968;BME280;9221;42.646;23.380;2023-04-06T08:20:38;94077.97;;;7.34;56.85
3968;BME280;9221;42.646;23.380;2023-04-06T08:23:04;94131.53;;;7.69;56.37
3968;BME280;9221;42.646;23.380;2023-04-06T08:25:29;94081.75;;;7.02;56.75
3968;BME280;9221;42.646;23.380;2023-04-06T08:27:55;94117.78;;;7.48;57.23
3968;BME280;9221;42.646;23.380;2023-04-06T08:30:21;94065.56;;;7.26;56.75
3968;BME280;9221;42.646;23.380;2023-04-06T08:32:46;94040.94;;;6.90;55.88
3968;BME280;9221;42.646;23.380;2023-04-06T08:35:12;94142.13;;;7.77;55.63
3968;BME280;9221;42.646;23.380;2023-04-06T08:37:37;94145.34;;;7.71;54.65
3968;BME280;9221;42.646;23.380;2023-04-06T08:40:03;94110.03;;;7.56;56.40
3968;BME280;9221;42.646;23.380;2023-04-06T08:42:32;94087.50;;;7.63;56.43
3968;BME280;9221;42.646;23.380;2023-04-06T08:44:58;94139.31;;;7.99;54.41
3968;BME280;9221;42.646;23.380;2023-04-06T08:47:24;94130.72;;;7.69;54.34
3968;BME280;9221;42.646;23.380;2023-04-06T08:49:50;94073.31;;;7.18;53.96
3968;BME280;9221;42.646;23.380;2023-04-06T08:52:17;94075.94;;;7.56;53.26
3968;BME280;9221;42.646;23.380;2023-04-06T08:54:43;94120.47;;;7.75;52.52
3968;BME280;9221;42.646;23.380;2023-04-06T08:57:08;94077.22;;;7.79;51.95
3968;BME280;9221;42.646;23.380;2023-04-06T08:59:34;94122.59;;;8.45;51.46
3968;BME280;9221;42.646;23.380;2023-04-06T09:02:03;94127.84;;;8.81;50.58
3968;BME280;9221;42.646;23.380;2023-04-06T09:04:29;94084.53;;;8.50;49.85
3968;BME280;9221;42.646;23.380;2023-04-06T09:06:54;94061.84;;;8.49;49.97
3968;BME280;9221;42.646;23.380;2023-04-06T09:09:20;94116.09;;;9.30;49.33
3968;BME280;9221;42.646;23.380;2023-04-06T09:11:48;94129.72;;;9.52;48.85
3968;BME280;9221;42.646;23.380;2023-04-06T09:14:14;94111.72;;;8.94;48.25
3968;BME280;9221;42.646;23.380;2023-04-06T09:16:41;94034.03;;;8.56;48.53
3968;BME280;9221;42.646;23.380;2023-04-06T09:19:07;94108.25;;;9.38;48.72
3968;BME280;9221;42.646;23.380;2023-04-06T09:21:33;94153.91;;;10.16;47.41
3968;BME280;9221;42.646;23.380;2023-04-06T09:24:00;94018.84;;;10.14;45.91
3968;BME280;9221;42.646;23.380;2023-04-06T09:26:26;94067.22;;;10.47;45.61
3968;BME280;9221;42.646;23.380;2023-04-06T09:28:58;94155.88;;;10.57;45.47
3968;BME280;9221;42.646;23.380;2023-04-06T09:31:29;94098.22;;;10.11;46.59
3968;BME280;9221;42.646;23.380;2023-04-06T09:33:58;94098.41;;;10.18;46.98
3968;BME280;9221;42.646;23.380;2023-04-06T09:36:35;94148.44;;;10.52;46.53
3968;BME280;9221;42.646;23.380;2023-04-06T09:39:04;94057.56;;;10.22;45.84
3968;BME280;9221;42.646;23.380;2023-04-06T09:41:34;94058.22;;;10.15;45.68
3968;BME280;9221;42.646;23.380;2023-04-06T09:44:06;94106.13;;;10.87;44.63
3968;BME280;9221;42.646;23.380;2023-04-06T09:46:34;94069.84;;;10.39;44.66
3968;BME280;9221;42.646;23.380;2023-04-06T09:49:03;94058.53;;;10.12;45.25
3968;BME280;9221;42.646;23.380;2023-04-06T09:51:31;94126.53;;;10.43;45.40
3968;BME280;9221;42.646;23.380;2023-04-06T09:53:57;94096.22;;;10.47;44.61
3968;BME280;9221;42.646;23.380;2023-04-06T09:56:30;94115.22;;;10.25;45.56
3968;BME280;9221;42.646;23.380;2023-04-06T09:59:02;94113.38;;;10.60;45.44
3968;BME280;9221;42.646;23.380;2023-04-06T10:01:29;94099.84;;;10.55;43.86
3968;BME280;9221;42.646;23.380;2023-04-06T10:06:43;94063.25;;;10.35;43.91
3968;BME280;9221;42.646;23.380;2023-04-06T10:09:09;94058.09;;;10.25;44.43
3968;BME280;9221;42.646;23.380;2023-04-06T10:11:36;94100.19;;;10.68;44.02
3968;BME280;9221;42.646;23.380;2023-04-06T10:14:02;94104.31;;;10.20;44.20
3968;BME280;9221;42.646;23.380;2023-04-06T10:16:28;94103.34;;;10.21;44.17
3968;BME280;9221;42.646;23.380;2023-04-06T10:19:01;94095.97;;;10.32;44.45
3968;BME280;9221;42.646;23.380;2023-04-06T10:21:29;94132.69;;;10.26;44.13
3968;BME280;9221;42.646;23.380;2023-04-06T10:23:59;94075.97;;;10.73;42.87
3968;BME280;9221;42.646;23.380;2023-04-06T10:26:25;94073.50;;;10.88;43.07
3968;BME280;9221;42.646;23.380;2023-04-06T10:28:51;94032.28;;;10.78;42.37
3968;BME280;9221;42.646;23.380;2023-04-06T10:31:27;94103.81;;;11.16;42.53
3968;BME280;9221;42.646;23.380;2023-04-06T10:34:01;94092.06;;;11.52;41.51
3968;BME280;9221;42.646;23.380;2023-04-06T10:36:31;94102.97;;;11.49;41.00
3968;BME280;9221;42.646;23.380;2023-04-06T10:38:59;94086.28;;;11.57;41.09
3968;BME280;9221;42.646;23.380;2023-04-06T10:43:58;94100.22;;;11.90;40.01
3968;BME280;9221;42.646;23.380;2023-04-06T10:46:33;94052.22;;;11.30;41.17
3968;BME280;9221;42.646;23.380;2023-04-06T10:49:12;94101.16;;;11.41;40.61
3968;BME280;9221;42.646;23.380;2023-04-06T10:51:39;94097.94;;;11.79;40.72
3968;BME280;9221;42.646;23.380;2023-04-06T10:54:06;94138.75;;;12.64;40.21
3968;BME280;9221;42.646;23.380;2023-04-06T10:56:32;94112.63;;;12.92;38.29
3968;BME280;9221;42.646;23.380;2023-04-06T10:58:59;94097.97;;;12.81;39.42
3968;BME280;9221;42.646;23.380;2023-04-06T11:01:25;94109.59;;;12.72;38.46
3968;BME280;9221;42.646;23.380;2023-04-06T11:03:54;94070.09;;;12.70;38.76
3968;BME280;9221;42.646;23.380;2023-04-06T11:06:30;94075.56;;;12.69;38.58
3968;BME280;9221;42.646;23.380;2023-04-06T11:08:58;94030.03;;;11.96;38.74
3968;BME280;9221;42.646;23.380;2023-04-06T11:11:25;94095.91;;;11.25;40.67
3968;BME280;9221;42.646;23.380;2023-04-06T11:13:58;94040.19;;;10.45;42.10
3968;BME280;9221;42.646;23.380;2023-04-06T11:16:29;94070.84;;;10.79;42.58
3968;BME280;9221;42.646;23.380;2023-04-06T11:19:00;94029.63;;;10.54;43.42
3968;BME280;9221;42.646;23.380;2023-04-06T11:21:42;94066.25;;;10.73;43.12
3968;BME280;9221;42.646;23.380;2023-04-06T11:24:21;94080.09;;;10.83;42.62
3968;BME280;9221;42.646;23.380;2023-04-06T11:26:47;94079.09;;;10.84;42.53
3968;BME280;9221;42.646;23.380;2023-04-06T11:29:16;94072.69;;;10.87;42.22
3968;BME280;9221;42.646;23.380;2023-04-06T11:31:46;94084.69;;;10.57;43.19
3968;BME280;9221;42.646;23.380;2023-04-06T11:34:13;94075.38;;;10.28;43.89
3968;BME280;9221;42.646;23.380;2023-04-06T11:36:43;94074.66;;;10.09;44.54
3968;BME280;9221;42.646;23.380;2023-04-06T11:39:09;94065.03;;;9.83;44.89
3968;BME280;9221;42.646;23.380;2023-04-06T11:41:35;94085.69;;;9.70;45.30
3968;BME280;9221;42.646;23.380;2023-04-06T11:44:05;94051.72;;;9.51;44.94
3968;BME280;9221;42.646;23.380;2023-04-06T11:46:30;94050.53;;;8.92;46.09
3968;BME280;9221;42.646;23.380;2023-04-06T11:49:00;94013.28;;;8.53;46.63
3968;BME280;9221;42.646;23.380;2023-04-06T11:51:26;94002.81;;;8.43;46.81
3968;BME280;9221;42.646;23.380;2023-04-06T11:53:52;94048.25;;;8.71;46.87
3968;BME280;9221;42.646;23.380;2023-04-06T11:56:28;94065.84;;;8.53;47.71
3968;BME280;9221;42.646;23.380;2023-04-06T11:58:57;94086.19;;;8.51;48.05
3968;BME280;9221;42.646;23.380;2023-04-06T12:01:25;94083.25;;;8.54;48.01
3968;BME280;9221;42.646;23.380;2023-04-06T12:03:52;94055.47;;;8.33;48.13
3968;BME280;9221;42.646;23.380;2023-04-06T12:06:17;94061.91;;;8.21;48.76
3968;BME280;9221;42.646;23.380;2023-04-06T12:08:43;94057.66;;;7.92;48.96
3968;BME280;9221;42.646;23.380;2023-04-06T12:11:10;94065.94;;;7.97;49.23
3968;BME280;9221;42.646;23.380;2023-04-06T12:13:35;94055.72;;;7.94;49.75
3968;BME280;9221;42.646;23.380;2023-04-06T12:16:01;93966.59;;;7.28;50.41
3968;BME280;9221;42.646;23.380;2023-04-06T12:18:26;94054.75;;;7.67;50.68
3968;BME280;9221;42.646;23.380;2023-04-06T12:20:52;94070.25;;;7.60;51.05
3968;BME280;9221;42.646;23.380;2023-04-06T12:23:19;94023.69;;;7.35;51.14
3968;BME280;9221;42.646;23.380;2023-04-06T12:25:45;94144.84;;;7.58;51.06
3968;BME280;9221;42.646;23.380;2023-04-06T12:28:11;94061.88;;;7.47;51.41
3968;BME280;9221;42.646;23.380;2023-04-06T12:30:37;94055.44;;;7.41;51.02
3968;BME280;9221;42.646;23.380;2023-04-06T12:33:02;94035.69;;;6.90;51.83
3968;BME280;9221;42.646;23.380;2023-04-06T12:35:28;94049.91;;;6.97;51.78
3968;BME280;9221;42.646;23.380;2023-04-06T12:37:53;94065.09;;;7.41;52.00
3968;BME280;9221;42.646;23.380;2023-04-06T12:40:20;94052.50;;;7.44;51.83
3968;BME280;9221;42.646;23.380;2023-04-06T12:42:45;94033.47;;;7.42;51.73
3968;BME280;9221;42.646;23.380;2023-04-06T12:45:11;93999.75;;;7.20;51.70
3968;BME280;9221;42.646;23.380;2023-04-06T12:47:37;93935.94;;;6.64;50.55
3968;BME280;9221;42.646;23.380;2023-04-06T12:50:04;94050.75;;;7.35;50.78
3968;BME280;9221;42.646;23.380;2023-04-06T12:52:30;94000.13;;;6.97;51.43
3968;BME280;9221;42.646;23.380;2023-04-06T12:54:57;93996.84;;;6.75;51.60
3968;BME280;9221;42.646;23.380;2023-04-06T12:57:23;93989.66;;;6.77;51.40
3968;BME280;9221;42.646;23.380;2023-04-06T12:59:49;94034.56;;;7.02;52.09
3968;BME280;9221;42.646;23.380;2023-04-06T13:02:15;94044.78;;;7.05;52.01
3968;BME280;9221;42.646;23.380;2023-04-06T13:04:40;94030.44;;;7.09;52.19
3968;BME280;9221;42.646;23.380;2023-04-06T13:07:06;94017.69;;;7.15;51.81
3968;BME280;9221;42.646;23.380;2023-04-06T13:09:32;93971.16;;;6.89;51.54
3968;BME280;9221;42.646;23.380;2023-04-06T13:11:57;94038.94;;;7.21;51.67
3968;BME280;9221;42.646;23.380;2023-04-06T13:14:23;93977.25;;;6.80;52.22
3968;BME280;9221;42.646;23.380;2023-04-06T13:16:48;93999.56;;;6.93;52.30
3968;BME280;9221;42.646;23.380;2023-04-06T13:19:13;94034.78;;;7.28;52.05
3968;BME280;9221;42.646;23.380;2023-04-06T13:21:39;94010.00;;;7.03;51.90